sensor_id;sensor_type;location;lat;lon;timestamp;temperature;humidity
22173;DHT22;11252;50.596;17.648;2022-08-19T00:02:14;24.90;84.20
22173;DHT22;11252;50.596;17.648;2022-08-19T00:04:41;24.90;84.40
22173;DHT22;11252;50.596;17.648;2022-08-19T00:07:09;24.90;84.30
22173;DHT22;11252;50.596;17.648;2022-08-19T00:09:36;24.90;84.40
22173;DHT22;11252;50.596;17.648;2022-08-19T00:12:04;24.90;84.40
22173;DHT22;11252;50.596;17.648;2022-08-19T00:14:31;24.90;84.40
22173;DHT22;11252;50.596;17.648;2022-08-19T00:16:59;24.90;84.40
22173;DHT22;11252;50.596;17.648;2022-08-19T00:19:27;24.90;84.50
22173;DHT22;11252;50.596;17.648;2022-08-19T00:21:54;24.80;84.60
22173;DHT22;11252;50.596;17.648;2022-08-19T00:24:23;24.80;84.70
22173;DHT22;11252;50.596;17.648;2022-08-19T00:26:51;24.80;84.60
22173;DHT22;11252;50.596;17.648;2022-08-19T00:29:20;24.80;84.70
22173;DHT22;11252;50.596;17.648;2022-08-19T00:31:48;24.80;84.90
22173;DHT22;11252;50.596;17.648;2022-08-19T00:34:17;24.70;84.90
22173;DHT22;11252;50.596;17.648;2022-08-19T00:36:44;24.70;84.90
22173;DHT22;11252;50.596;17.648;2022-08-19T00:39:13;24.70;84.90
22173;DHT22;11252;50.596;17.648;2022-08-19T00:41:42;24.60;85.30
22173;DHT22;11252;50.596;17.648;2022-08-19T00:44:11;24.70;85.20
22173;DHT22;11252;50.596;17.648;2022-08-19T00:46:42;24.60;85.30
22173;DHT22;11252;50.596;17.648;2022-08-19T00:49:43;24.50;85.50
22173;DHT22;11252;50.596;17.648;2022-08-19T00:52:12;24.50;85.60
22173;DHT22;11252;50.596;17.648;2022-08-19T00:54:42;24.50;85.80
22173;DHT22;11252;50.596;17.648;2022-08-19T00:57:13;24.40;85.90
22173;DHT22;11252;50.596;17.648;2022-08-19T00:59:44;24.40;86.40
22173;DHT22;11252;50.596;17.648;2022-08-19T01:02:28;24.30;86.40
22173;DHT22;11252;50.596;17.648;2022-08-19T01:04:56;24.30;86.70
22173;DHT22;11252;50.596;17.648;2022-08-19T01:07:24;24.20;86.80
22173;DHT22;11252;50.596;17.648;2022-08-19T01:09:52;24.10;87.10
22173;DHT22;11252;50.596;17.648;2022-08-19T01:12:19;24.00;87.20
22173;DHT22;11252;50.596;17.648;2022-08-19T01:14:49;24.10;87.20
22173;DHT22;11252;50.596;17.648;2022-08-19T01:17:17;24.00;87.30
22173;DHT22;11252;50.596;17.648;2022-08-19T01:19:47;24.10;87.40
22173;DHT22;11252;50.596;17.648;2022-08-19T01:22:31;24.00;87.50
22173;DHT22;11252;50.596;17.648;2022-08-19T01:25:02;24.00;87.50
22173;DHT22;11252;50.596;17.648;2022-08-19T01:27:42;23.90;87.80
22173;DHT22;11252;50.596;17.648;2022-08-19T01:30:24;23.90;88.20
22173;DHT22;11252;50.596;17.648;2022-08-19T01:32:52;23.80;88.30
22173;DHT22;11252;50.596;17.648;2022-08-19T01:35:23;23.70;88.50
22173;DHT22;11252;50.596;17.648;2022-08-19T01:37:56;23.70;89.00
22173;DHT22;11252;50.596;17.648;2022-08-19T01:40:29;23.60;89.10
22173;DHT22;11252;50.596;17.648;2022-08-19T01:42:58;23.60;89.20
22173;DHT22;11252;50.596;17.648;2022-08-19T01:45:27;23.50;89.40
22173;DHT22;11252;50.596;17.648;2022-08-19T01:47:56;23.40;89.70
22173;DHT22;11252;50.596;17.648;2022-08-19T01:50:30;23.40;90.10
22173;DHT22;11252;50.596;17.648;2022-08-19T01:52:58;23.30;90.40
22173;DHT22;11252;50.596;17.648;2022-08-19T01:55:38;23.30;90.50
22173;DHT22;11252;50.596;17.648;2022-08-19T01:58:12;23.30;90.60
22173;DHT22;11252;50.596;17.648;2022-08-19T02:00:43;23.20;90.90
22173;DHT22;11252;50.596;17.648;2022-08-19T02:03:11;23.20;91.00
22173;DHT22;11252;50.596;17.648;2022-08-19T02:05:39;23.20;91.10
22173;DHT22;11252;50.596;17.648;2022-08-19T02:08:07;23.20;91.20
22173;DHT22;11252;50.596;17.648;2022-08-19T02:10:39;23.20;91.40
22173;DHT22;11252;50.596;17.648;2022-08-19T02:13:08;23.10;91.50
22173;DHT22;11252;50.596;17.648;2022-08-19T02:15:36;23.10;91.60
22173;DHT22;11252;50.596;17.648;2022-08-19T02:18:04;23.10;91.70
22173;DHT22;11252;50.596;17.648;2022-08-19T02:20:32;23.10;91.80
22173;DHT22;11252;50.596;17.648;2022-08-19T02:23:00;23.10;91.80
22173;DHT22;11252;50.596;17.648;2022-08-19T02:25:28;23.10;91.90
22173;DHT22;11252;50.596;17.648;2022-08-19T02:27:56;23.10;91.90
22173;DHT22;11252;50.596;17.648;2022-08-19T02:30:23;23.10;91.90
22173;DHT22;11252;50.596;17.648;2022-08-19T02:32:52;23.10;92.00
22173;DHT22;11252;50.596;17.648;2022-08-19T02:35:20;23.10;92.00
22173;DHT22;11252;50.596;17.648;2022-08-19T02:37:48;23.00;92.20
22173;DHT22;11252;50.596;17.648;2022-08-19T02:40:34;23.00;92.20
22173;DHT22;11252;50.596;17.648;2022-08-19T02:43:07;23.00;92.20
22173;DHT22;11252;50.596;17.648;2022-08-19T02:45:37;22.90;92.20
22173;DHT22;11252;50.596;17.648;2022-08-19T02:48:07;22.90;92.20
22173;DHT22;11252;50.596;17.648;2022-08-19T02:50:49;22.90;92.20
22173;DHT22;11252;50.596;17.648;2022-08-19T02:53:23;22.80;92.20
22173;DHT22;11252;50.596;17.648;2022-08-19T02:55:51;22.80;92.20
22173;DHT22;11252;50.596;17.648;2022-08-19T02:58:20;22.80;92.20
22173;DHT22;11252;50.596;17.648;2022-08-19T03:00:51;22.80;92.20
22173;DHT22;11252;50.596;17.648;2022-08-19T03:03:20;22.70;92.20
22173;DHT22;11252;50.596;17.648;2022-08-19T03:05:48;22.70;92.20
22173;DHT22;11252;50.596;17.648;2022-08-19T03:08:23;22.70;92.20
22173;DHT22;11252;50.596;17.648;2022-08-19T03:10:51;22.60;92.20
22173;DHT22;11252;50.596;17.648;2022-08-19T03:13:19;22.60;92.20
22173;DHT22;11252;50.596;17.648;2022-08-19T03:15:48;22.60;92.20
22173;DHT22;11252;50.596;17.648;2022-08-19T03:18:16;22.50;92.20
22173;DHT22;11252;50.596;17.648;2022-08-19T03:20:48;22.50;92.20
22173;DHT22;11252;50.596;17.648;2022-08-19T03:23:17;22.40;92.20
22173;DHT22;11252;50.596;17.648;2022-08-19T03:25:47;22.40;92.20
22173;DHT22;11252;50.596;17.648;2022-08-19T03:28:35;22.40;92.20
22173;DHT22;11252;50.596;17.648;2022-08-19T03:31:12;22.30;92.20
22173;DHT22;11252;50.596;17.648;2022-08-19T03:33:59;22.40;92.20
22173;DHT22;11252;50.596;17.648;2022-08-19T03:36:29;22.40;92.20
22173;DHT22;11252;50.596;17.648;2022-08-19T03:38:59;22.40;92.20
22173;DHT22;11252;50.596;17.648;2022-08-19T03:41:32;22.40;92.20
22173;DHT22;11252;50.596;17.648;2022-08-19T03:44:12;22.50;92.20
22173;DHT22;11252;50.596;17.648;2022-08-19T03:46:46;22.50;92.20
22173;DHT22;11252;50.596;17.648;2022-08-19T03:49:13;22.50;92.20
22173;DHT22;11252;50.596;17.648;2022-08-19T03:51:45;22.50;92.20
22173;DHT22;11252;50.596;17.648;2022-08-19T03:54:14;22.60;92.20
22173;DHT22;11252;50.596;17.648;2022-08-19T03:56:44;22.60;92.20
22173;DHT22;11252;50.596;17.648;2022-08-19T03:59:16;22.70;92.20
22173;DHT22;11252;50.596;17.648;2022-08-19T04:01:44;22.70;92.20
22173;DHT22;11252;50.596;17.648;2022-08-19T04:04:12;22.70;92.20
22173;DHT22;11252;50.596;17.648;2022-08-19T04:06:40;22.90;92.20
22173;DHT22;11252;50.596;17.648;2022-08-19T04:09:10;22.90;92.20
22173;DHT22;11252;50.596;17.648;2022-08-19T04:11:40;22.90;92.20
22173;DHT22;11252;50.596;17.648;2022-08-19T04:14:20;22.90;92.20
22173;DHT22;11252;50.596;17.648;2022-08-19T04:16:48;22.80;92.20
22173;DHT22;11252;50.596;17.648;2022-08-19T04:19:17;22.90;92.20
22173;DHT22;11252;50.596;17.648;2022-08-19T04:21:47;22.80;92.20
22173;DHT22;11252;50.596;17.648;2022-08-19T04:24:16;22.80;92.20
22173;DHT22;11252;50.596;17.648;2022-08-19T04:26:44;22.70;92.20
22173;DHT22;11252;50.596;17.648;2022-08-19T04:29:19;22.80;92.20
22173;DHT22;11252;50.596;17.648;2022-08-19T04:31:49;22.70;92.20
22173;DHT22;11252;50.596;17.648;2022-08-19T04:34:19;22.70;92.20
22173;DHT22;11252;50.596;17.648;2022-08-19T04:36:53;22.70;92.20
22173;DHT22;11252;50.596;17.648;2022-08-19T04:39:23;22.70;92.20
22173;DHT22;11252;50.596;17.648;2022-08-19T04:42:12;22.70;92.20
22173;DHT22;11252;50.596;17.648;2022-08-19T04:44:58;22.80;92.20
22173;DHT22;11252;50.596;17.648;2022-08-19T04:47:27;22.90;92.20
22173;DHT22;11252;50.596;17.648;2022-08-19T04:50:15;23.00;92.20
22173;DHT22;11252;50.596;17.648;2022-08-19T04:52:42;23.00;92.20
22173;DHT22;11252;50.596;17.648;2022-08-19T04:55:10;23.10;92.20
22173;DHT22;11252;50.596;17.648;2022-08-19T04:57:40;23.10;92.20
22173;DHT22;11252;50.596;17.648;2022-08-19T05:00:13;23.20;92.20
22173;DHT22;11252;50.596;17.648;2022-08-19T05:02:40;23.30;92.20
22173;DHT22;11252;50.596;17.648;2022-08-19T05:05:09;23.40;92.20
22173;DHT22;11252;50.596;17.648;2022-08-19T05:07:36;23.40;92.20
22173;DHT22;11252;50.596;17.648;2022-08-19T05:10:05;23.40;92.20
22173;DHT22;11252;50.596;17.648;2022-08-19T05:12:33;23.50;92.10
22173;DHT22;11252;50.596;17.648;2022-08-19T05:15:03;23.50;91.90
22173;DHT22;11252;50.596;17.648;2022-08-19T05:17:31;23.60;91.40
22173;DHT22;11252;50.596;17.648;2022-08-19T05:20:06;23.70;91.20
22173;DHT22;11252;50.596;17.648;2022-08-19T05:22:52;23.80;91.20
22173;DHT22;11252;50.596;17.648;2022-08-19T05:25:21;23.90;90.80
22173;DHT22;11252;50.596;17.648;2022-08-19T05:27:48;23.90;90.30
22173;DHT22;11252;50.596;17.648;2022-08-19T05:30:17;24.00;90.30
22173;DHT22;11252;50.596;17.648;2022-08-19T05:32:59;24.00;90.50
22173;DHT22;11252;50.596;17.648;2022-08-19T05:35:27;23.90;90.60
22173;DHT22;11252;50.596;17.648;2022-08-19T05:38:00;24.00;90.80
22173;DHT22;11252;50.596;17.648;2022-08-19T05:40:28;24.10;90.40
22173;DHT22;11252;50.596;17.648;2022-08-19T05:42:56;24.20;90.50
22173;DHT22;11252;50.596;17.648;2022-08-19T05:45:25;24.30;90.20
22173;DHT22;11252;50.596;17.648;2022-08-19T05:47:52;24.40;89.70
22173;DHT22;11252;50.596;17.648;2022-08-19T05:50:20;24.60;89.00
22173;DHT22;11252;50.596;17.648;2022-08-19T05:52:48;24.70;88.40
22173;DHT22;11252;50.596;17.648;2022-08-19T05:55:16;24.80;88.50
22173;DHT22;11252;50.596;17.648;2022-08-19T05:57:47;24.90;88.20
22173;DHT22;11252;50.596;17.648;2022-08-19T06:00:14;25.10;86.90
22173;DHT22;11252;50.596;17.648;2022-08-19T06:02:47;25.20;86.70
22173;DHT22;11252;50.596;17.648;2022-08-19T06:05:14;25.30;86.40
22173;DHT22;11252;50.596;17.648;2022-08-19T06:07:42;25.40;86.00
22173;DHT22;11252;50.596;17.648;2022-08-19T06:10:10;25.50;85.90
22173;DHT22;11252;50.596;17.648;2022-08-19T06:12:38;25.50;85.10
22173;DHT22;11252;50.596;17.648;2022-08-19T06:15:11;25.60;84.70
22173;DHT22;11252;50.596;17.648;2022-08-19T06:17:40;25.70;84.00
22173;DHT22;11252;50.596;17.648;2022-08-19T06:20:14;25.80;83.50
22173;DHT22;11252;50.596;17.648;2022-08-19T06:22:44;25.80;83.60
22173;DHT22;11252;50.596;17.648;2022-08-19T06:25:13;25.90;83.70
22173;DHT22;11252;50.596;17.648;2022-08-19T06:27:41;26.00;83.30
22173;DHT22;11252;50.596;17.648;2022-08-19T06:30:29;26.10;82.30
22173;DHT22;11252;50.596;17.648;2022-08-19T06:32:56;26.30;82.10
22173;DHT22;11252;50.596;17.648;2022-08-19T06:35:24;26.50;81.90
22173;DHT22;11252;50.596;17.648;2022-08-19T06:37:52;26.60;81.60
22173;DHT22;11252;50.596;17.648;2022-08-19T06:40:21;26.80;81.00
22173;DHT22;11252;50.596;17.648;2022-08-19T06:42:48;27.00;79.80
22173;DHT22;11252;50.596;17.648;2022-08-19T06:45:22;27.00;79.30
22173;DHT22;11252;50.596;17.648;2022-08-19T06:48:00;26.90;79.20
22173;DHT22;11252;50.596;17.648;2022-08-19T06:50:28;27.00;79.80
22173;DHT22;11252;50.596;17.648;2022-08-19T06:52:56;27.00;79.70
22173;DHT22;11252;50.596;17.648;2022-08-19T06:55:27;27.20;79.40
22173;DHT22;11252;50.596;17.648;2022-08-19T06:58:02;27.30;78.60
22173;DHT22;11252;50.596;17.648;2022-08-19T07:00:31;27.40;78.70
22173;DHT22;11252;50.596;17.648;2022-08-19T07:02:59;27.50;77.70
22173;DHT22;11252;50.596;17.648;2022-08-19T07:05:39;27.60;77.60
22173;DHT22;11252;50.596;17.648;2022-08-19T07:08:12;27.80;77.50
22173;DHT22;11252;50.596;17.648;2022-08-19T07:10:43;27.70;77.90
22173;DHT22;11252;50.596;17.648;2022-08-19T07:13:12;27.60;78.00
22173;DHT22;11252;50.596;17.648;2022-08-19T07:15:39;27.70;78.20
22173;DHT22;11252;50.596;17.648;2022-08-19T07:18:08;27.80;78.50
22173;DHT22;11252;50.596;17.648;2022-08-19T07:20:42;27.90;77.10
22173;DHT22;11252;50.596;17.648;2022-08-19T07:23:10;28.10;77.10
22173;DHT22;11252;50.596;17.648;2022-08-19T07:25:44;28.30;76.40
22173;DHT22;11252;50.596;17.648;2022-08-19T07:28:19;28.50;76.10
22173;DHT22;11252;50.596;17.648;2022-08-19T07:30:51;28.60;75.20
22173;DHT22;11252;50.596;17.648;2022-08-19T07:33:19;28.70;75.40
22173;DHT22;11252;50.596;17.648;2022-08-19T07:35:48;29.00;74.30
22173;DHT22;11252;50.596;17.648;2022-08-19T07:38:19;29.30;74.50
22173;DHT22;11252;50.596;17.648;2022-08-19T07:40:46;29.60;74.80
22173;DHT22;11252;50.596;17.648;2022-08-19T07:43:14;29.70;73.70
22173;DHT22;11252;50.596;17.648;2022-08-19T07:45:57;29.60;72.10
22173;DHT22;11252;50.596;17.648;2022-08-19T07:48:26;29.30;73.00
22173;DHT22;11252;50.596;17.648;2022-08-19T07:50:57;29.40;73.70
22173;DHT22;11252;50.596;17.648;2022-08-19T07:53:25;29.50;73.70
22173;DHT22;11252;50.596;17.648;2022-08-19T07:55:52;29.70;73.40
22173;DHT22;11252;50.596;17.648;2022-08-19T07:58:21;30.10;72.20
22173;DHT22;11252;50.596;17.648;2022-08-19T08:00:50;30.20;71.20
22173;DHT22;11252;50.596;17.648;2022-08-19T08:03:20;30.00;71.30
22173;DHT22;11252;50.596;17.648;2022-08-19T08:05:47;29.90;71.30
22173;DHT22;11252;50.596;17.648;2022-08-19T08:08:33;29.90;71.40
22173;DHT22;11252;50.596;17.648;2022-08-19T08:11:20;30.00;71.30
22173;DHT22;11252;50.596;17.648;2022-08-19T08:13:49;29.90;71.40
22173;DHT22;11252;50.596;17.648;2022-08-19T08:16:37;29.80;71.20
22173;DHT22;11252;50.596;17.648;2022-08-19T08:19:14;29.70;71.70
22173;DHT22;11252;50.596;17.648;2022-08-19T08:21:55;29.70;71.00
22173;DHT22;11252;50.596;17.648;2022-08-19T08:24:23;29.70;72.20
22173;DHT22;11252;50.596;17.648;2022-08-19T08:26:55;29.60;71.70
22173;DHT22;11252;50.596;17.648;2022-08-19T08:29:24;29.60;72.10
22173;DHT22;11252;50.596;17.648;2022-08-19T08:32:00;29.50;71.70
22173;DHT22;11252;50.596;17.648;2022-08-19T08:34:28;29.60;71.80
22173;DHT22;11252;50.596;17.648;2022-08-19T08:36:56;29.70;71.20
22173;DHT22;11252;50.596;17.648;2022-08-19T08:39:23;29.70;71.40
22173;DHT22;11252;50.596;17.648;2022-08-19T08:42:06;29.80;70.90
22173;DHT22;11252;50.596;17.648;2022-08-19T08:44:58;29.70;71.50
22173;DHT22;11252;50.596;17.648;2022-08-19T08:47:30;29.80;71.30
22173;DHT22;11252;50.596;17.648;2022-08-19T08:50:00;29.80;71.20
22173;DHT22;11252;50.596;17.648;2022-08-19T08:52:35;29.90;69.90
22173;DHT22;11252;50.596;17.648;2022-08-19T08:55:11;30.00;69.30
22173;DHT22;11252;50.596;17.648;2022-08-19T09:00:26;30.30;68.30
22173;DHT22;11252;50.596;17.648;2022-08-19T09:02:55;30.60;67.20
22173;DHT22;11252;50.596;17.648;2022-08-19T09:05:39;31.00;65.30
22173;DHT22;11252;50.596;17.648;2022-08-19T09:10:53;31.50;63.60
22173;DHT22;11252;50.596;17.648;2022-08-19T09:16:11;32.10;62.20
22173;DHT22;11252;50.596;17.648;2022-08-19T09:21:07;33.10;61.40
22173;DHT22;11252;50.596;17.648;2022-08-19T09:23:36;33.40;60.20
22173;DHT22;11252;50.596;17.648;2022-08-19T09:26:13;33.30;59.80
22173;DHT22;11252;50.596;17.648;2022-08-19T09:28:44;33.20;60.70
22173;DHT22;11252;50.596;17.648;2022-08-19T09:31:17;33.20;61.20
22173;DHT22;11252;50.596;17.648;2022-08-19T09:33:46;33.40;60.30
22173;DHT22;11252;50.596;17.648;2022-08-19T09:36:20;33.90;60.80
22173;DHT22;11252;50.596;17.648;2022-08-19T09:39:00;34.10;60.20
22173;DHT22;11252;50.596;17.648;2022-08-19T09:41:28;34.50;59.80
22173;DHT22;11252;50.596;17.648;2022-08-19T09:43:57;34.30;57.70
22173;DHT22;11252;50.596;17.648;2022-08-19T09:46:27;34.30;58.10
22173;DHT22;11252;50.596;17.648;2022-08-19T09:48:58;34.30;58.90
22173;DHT22;11252;50.596;17.648;2022-08-19T09:51:32;34.40;57.70
22173;DHT22;11252;50.596;17.648;2022-08-19T09:54:02;34.40;57.40
22173;DHT22;11252;50.596;17.648;2022-08-19T09:56:32;34.30;58.20
22173;DHT22;11252;50.596;17.648;2022-08-19T09:59:02;34.40;58.70
22173;DHT22;11252;50.596;17.648;2022-08-19T10:01:31;34.60;57.30
22173;DHT22;11252;50.596;17.648;2022-08-19T10:04:00;34.70;57.70
22173;DHT22;11252;50.596;17.648;2022-08-19T10:06:36;34.60;57.00
22173;DHT22;11252;50.596;17.648;2022-08-19T10:09:14;34.00;57.70
22173;DHT22;11252;50.596;17.648;2022-08-19T10:11:52;34.20;60.20
22173;DHT22;11252;50.596;17.648;2022-08-19T10:14:20;34.40;58.10
22173;DHT22;11252;50.596;17.648;2022-08-19T10:16:50;34.60;58.00
22173;DHT22;11252;50.596;17.648;2022-08-19T10:19:19;34.90;57.20
22173;DHT22;11252;50.596;17.648;2022-08-19T10:21:53;35.20;55.90
22173;DHT22;11252;50.596;17.648;2022-08-19T10:24:26;34.90;56.30
22173;DHT22;11252;50.596;17.648;2022-08-19T10:26:55;35.10;57.30
22173;DHT22;11252;50.596;17.648;2022-08-19T10:29:26;35.20;57.10
22173;DHT22;11252;50.596;17.648;2022-08-19T10:32:04;35.50;56.00
22173;DHT22;11252;50.596;17.648;2022-08-19T10:34:39;35.50;54.80
22173;DHT22;11252;50.596;17.648;2022-08-19T10:37:16;35.60;55.00
22173;DHT22;11252;50.596;17.648;2022-08-19T10:39:54;35.70;54.20
22173;DHT22;11252;50.596;17.648;2022-08-19T10:42:22;35.70;54.80
22173;DHT22;11252;50.596;17.648;2022-08-19T10:44:49;36.00;54.60
22173;DHT22;11252;50.596;17.648;2022-08-19T10:47:18;35.80;54.40
22173;DHT22;11252;50.596;17.648;2022-08-19T10:49:55;36.20;54.90
22173;DHT22;11252;50.596;17.648;2022-08-19T10:52:43;36.60;53.20
22173;DHT22;11252;50.596;17.648;2022-08-19T10:55:17;36.80;53.70
22173;DHT22;11252;50.596;17.648;2022-08-19T10:58:04;37.10;53.20
22173;DHT22;11252;50.596;17.648;2022-08-19T11:00:32;37.20;52.60
22173;DHT22;11252;50.596;17.648;2022-08-19T11:02:59;37.30;52.90
22173;DHT22;11252;50.596;17.648;2022-08-19T11:05:26;36.90;52.60
22173;DHT22;11252;50.596;17.648;2022-08-19T11:07:55;36.30;53.40
22173;DHT22;11252;50.596;17.648;2022-08-19T11:10:23;35.90;54.20
22173;DHT22;11252;50.596;17.648;2022-08-19T11:12:50;35.30;54.20
22173;DHT22;11252;50.596;17.648;2022-08-19T11:15:21;34.80;55.80
22173;DHT22;11252;50.596;17.648;2022-08-19T11:17:50;34.50;56.10
22173;DHT22;11252;50.596;17.648;2022-08-19T11:20:21;34.40;55.90
22173;DHT22;11252;50.596;17.648;2022-08-19T11:22:52;34.20;57.00
22173;DHT22;11252;50.596;17.648;2022-08-19T11:25:20;34.20;57.40
22173;DHT22;11252;50.596;17.648;2022-08-19T11:27:48;34.10;56.90
22173;DHT22;11252;50.596;17.648;2022-08-19T11:30:18;34.00;57.80
22173;DHT22;11252;50.596;17.648;2022-08-19T11:32:46;33.80;57.50
22173;DHT22;11252;50.596;17.648;2022-08-19T11:35:15;33.50;57.40
22173;DHT22;11252;50.596;17.648;2022-08-19T11:37:43;33.40;57.70
22173;DHT22;11252;50.596;17.648;2022-08-19T11:40:11;33.30;58.40
22173;DHT22;11252;50.596;17.648;2022-08-19T11:42:39;33.40;57.90
22173;DHT22;11252;50.596;17.648;2022-08-19T11:45:26;33.40;58.20
22173;DHT22;11252;50.596;17.648;2022-08-19T11:47:55;33.20;58.80
22173;DHT22;11252;50.596;17.648;2022-08-19T11:50:23;33.10;58.80
22173;DHT22;11252;50.596;17.648;2022-08-19T11:52:54;32.90;59.10
22173;DHT22;11252;50.596;17.648;2022-08-19T11:55:22;32.80;59.90
22173;DHT22;11252;50.596;17.648;2022-08-19T11:57:50;32.70;60.10
22173;DHT22;11252;50.596;17.648;2022-08-19T12:00:18;32.80;61.40
22173;DHT22;11252;50.596;17.648;2022-08-19T12:02:45;32.80;62.70
22173;DHT22;11252;50.596;17.648;2022-08-19T12:05:13;32.70;64.30
22173;DHT22;11252;50.596;17.648;2022-08-19T12:07:40;32.70;64.30
22173;DHT22;11252;50.596;17.648;2022-08-19T12:10:09;33.20;63.80
22173;DHT22;11252;50.596;17.648;2022-08-19T12:12:37;33.60;62.10
22173;DHT22;11252;50.596;17.648;2022-08-19T12:15:13;33.90;61.80
22173;DHT22;11252;50.596;17.648;2022-08-19T12:17:41;34.10;60.10
22173;DHT22;11252;50.596;17.648;2022-08-19T12:20:11;34.10;60.20
22173;DHT22;11252;50.596;17.648;2022-08-19T12:22:40;34.20;59.80
22173;DHT22;11252;50.596;17.648;2022-08-19T12:25:10;34.40;59.40
22173;DHT22;11252;50.596;17.648;2022-08-19T12:27:38;34.70;60.20
22173;DHT22;11252;50.596;17.648;2022-08-19T12:30:11;34.90;58.70
22173;DHT22;11252;50.596;17.648;2022-08-19T12:32:39;35.00;58.00
22173;DHT22;11252;50.596;17.648;2022-08-19T12:35:08;35.00;58.40
22173;DHT22;11252;50.596;17.648;2022-08-19T12:37:39;35.00;58.30
22173;DHT22;11252;50.596;17.648;2022-08-19T12:40:24;34.80;58.60
22173;DHT22;11252;50.596;17.648;2022-08-19T12:42:53;34.80;58.40
22173;DHT22;11252;50.596;17.648;2022-08-19T12:45:21;34.90;58.90
22173;DHT22;11252;50.596;17.648;2022-08-19T12:47:49;35.10;59.20
22173;DHT22;11252;50.596;17.648;2022-08-19T12:50:20;35.00;58.60
22173;DHT22;11252;50.596;17.648;2022-08-19T12:52:48;34.80;59.00
22173;DHT22;11252;50.596;17.648;2022-08-19T12:55:15;34.60;59.80
22173;DHT22;11252;50.596;17.648;2022-08-19T12:57:45;34.60;59.70
22173;DHT22;11252;50.596;17.648;2022-08-19T13:00:16;34.50;59.30
22173;DHT22;11252;50.596;17.648;2022-08-19T13:02:46;34.70;59.90
22173;DHT22;11252;50.596;17.648;2022-08-19T13:05:15;34.80;60.20
22173;DHT22;11252;50.596;17.648;2022-08-19T13:07:43;34.80;58.60
22173;DHT22;11252;50.596;17.648;2022-08-19T13:10:13;34.80;59.10
22173;DHT22;11252;50.596;17.648;2022-08-19T13:12:44;34.80;58.30
22173;DHT22;11252;50.596;17.648;2022-08-19T13:15:12;34.80;59.20
22173;DHT22;11252;50.596;17.648;2022-08-19T13:17:41;34.70;58.40
22173;DHT22;11252;50.596;17.648;2022-08-19T13:20:10;34.70;59.70
22173;DHT22;11252;50.596;17.648;2022-08-19T13:22:38;34.80;59.00
22173;DHT22;11252;50.596;17.648;2022-08-19T13:25:06;34.90;59.70
22173;DHT22;11252;50.596;17.648;2022-08-19T13:27:35;34.80;59.60
22173;DHT22;11252;50.596;17.648;2022-08-19T13:30:05;34.60;58.90
22173;DHT22;11252;50.596;17.648;2022-08-19T13:32:52;34.50;59.40
22173;DHT22;11252;50.596;17.648;2022-08-19T13:35:46;34.60;60.00
22173;DHT22;11252;50.596;17.648;2022-08-19T13:38:19;34.70;58.80
22173;DHT22;11252;50.596;17.648;2022-08-19T13:40:48;34.40;59.30
22173;DHT22;11252;50.596;17.648;2022-08-19T13:43:18;34.20;59.80
22173;DHT22;11252;50.596;17.648;2022-08-19T13:45:51;34.00;60.10
22173;DHT22;11252;50.596;17.648;2022-08-19T13:48:21;34.00;60.00
22173;DHT22;11252;50.596;17.648;2022-08-19T13:50:48;33.90;60.40
22173;DHT22;11252;50.596;17.648;2022-08-19T13:53:17;33.80;60.60
22173;DHT22;11252;50.596;17.648;2022-08-19T13:55:45;33.80;61.30
22173;DHT22;11252;50.596;17.648;2022-08-19T13:58:12;33.90;60.60
22173;DHT22;11252;50.596;17.648;2022-08-19T14:00:43;33.90;61.00
22173;DHT22;11252;50.596;17.648;2022-08-19T14:03:12;33.90;61.50
22173;DHT22;11252;50.596;17.648;2022-08-19T14:05:39;34.00;61.50
22173;DHT22;11252;50.596;17.648;2022-08-19T14:08:07;34.00;61.60
22173;DHT22;11252;50.596;17.648;2022-08-19T14:10:36;34.00;61.40
22173;DHT22;11252;50.596;17.648;2022-08-19T14:13:04;34.00;60.50
22173;DHT22;11252;50.596;17.648;2022-08-19T14:15:31;34.00;61.60
22173;DHT22;11252;50.596;17.648;2022-08-19T14:17:59;34.10;60.90
22173;DHT22;11252;50.596;17.648;2022-08-19T14:20:27;34.20;60.30
22173;DHT22;11252;50.596;17.648;2022-08-19T14:22:55;34.10;60.30
22173;DHT22;11252;50.596;17.648;2022-08-19T14:25:26;34.00;61.00
22173;DHT22;11252;50.596;17.648;2022-08-19T14:27:54;34.00;61.00
22173;DHT22;11252;50.596;17.648;2022-08-19T14:30:28;33.90;60.60
22173;DHT22;11252;50.596;17.648;2022-08-19T14:32:57;33.80;61.40
22173;DHT22;11252;50.596;17.648;2022-08-19T14:35:29;33.80;61.50
22173;DHT22;11252;50.596;17.648;2022-08-19T14:37:57;33.80;60.90
22173;DHT22;11252;50.596;17.648;2022-08-19T14:40:26;33.90;61.30
22173;DHT22;11252;50.596;17.648;2022-08-19T14:43:00;33.90;61.00
22173;DHT22;11252;50.596;17.648;2022-08-19T14:45:36;34.00;60.90
22173;DHT22;11252;50.596;17.648;2022-08-19T14:48:05;34.00;61.10
22173;DHT22;11252;50.596;17.648;2022-08-19T14:50:34;33.90;61.10
22173;DHT22;11252;50.596;17.648;2022-08-19T14:53:08;33.60;60.60
22173;DHT22;11252;50.596;17.648;2022-08-19T14:55:42;33.50;60.90
22173;DHT22;11252;50.596;17.648;2022-08-19T14:58:10;33.40;61.20
22173;DHT22;11252;50.596;17.648;2022-08-19T15:00:57;33.30;61.60
22173;DHT22;11252;50.596;17.648;2022-08-19T15:03:27;33.20;61.70
22173;DHT22;11252;50.596;17.648;2022-08-19T15:05:56;33.20;61.90
22173;DHT22;11252;50.596;17.648;2022-08-19T15:08:25;33.10;61.10
22173;DHT22;11252;50.596;17.648;2022-08-19T15:10:53;33.00;61.50
22173;DHT22;11252;50.596;17.648;2022-08-19T15:13:21;32.80;61.40
22173;DHT22;11252;50.596;17.648;2022-08-19T15:15:49;32.80;61.40
22173;DHT22;11252;50.596;17.648;2022-08-19T15:18:16;32.60;61.50
22173;DHT22;11252;50.596;17.648;2022-08-19T15:20:44;32.50;62.00
22173;DHT22;11252;50.596;17.648;2022-08-19T15:23:14;32.40;62.40
22173;DHT22;11252;50.596;17.648;2022-08-19T15:25:41;32.10;65.70
22173;DHT22;11252;50.596;17.648;2022-08-19T15:28:10;31.20;68.50
22173;DHT22;11252;50.596;17.648;2022-08-19T15:30:42;30.30;71.50
22173;DHT22;11252;50.596;17.648;2022-08-19T15:33:11;29.90;71.20
22173;DHT22;11252;50.596;17.648;2022-08-19T15:35:43;29.30;74.90
22173;DHT22;11252;50.596;17.648;2022-08-19T15:38:10;28.50;78.60
22173;DHT22;11252;50.596;17.648;2022-08-19T15:40:41;27.90;80.60
22173;DHT22;11252;50.596;17.648;2022-08-19T15:43:08;27.10;84.50
22173;DHT22;11252;50.596;17.648;2022-08-19T15:45:36;25.70;91.70
22173;DHT22;11252;50.596;17.648;2022-08-19T15:48:04;24.80;92.20
22173;DHT22;11252;50.596;17.648;2022-08-19T15:50:32;24.20;92.20